Time;durP1;ratioP1;P1;durP2;ratioP2;P2;SDS_P1;SDS_P2;PMS_P1;PMS_P2;Temp;Humidity;BMP_temperature;BMP_pressure;BME280_temperature;BME280_humidity;BME280_pressure;Samples;Min_cycle;Max_cycle;Signal;HPM_P1;HPM_P2
2021/06/10 00:01:18;;;;;;;15.48;12.88;;;18.50;70.20;;;;;;5039530;28;20067;-73
2021/06/10 00:03:44;;;;;;;13.75;11.10;;;18.40;69.40;;;;;;5040215;28;20033;-73
2021/06/10 00:06:09;;;;;;;12.40;9.43;;;18.30;68.50;;;;;;5039713;28;20091;-72
2021/06/10 00:08:35;;;;;;;12.15;8.50;;;18.10;66.20;;;;;;5041490;28;20037;-73
2021/06/10 00:11:01;;;;;;;10.32;7.50;;;18.00;64.30;;;;;;5040923;28;20465;-73
2021/06/10 00:13:26;;;;;;;10.38;7.22;;;18.00;62.60;;;;;;5040464;28;20041;-73
2021/06/10 00:15:52;;;;;;;9.23;6.65;;;17.90;61.80;;;;;;5042470;28;20029;-73
2021/06/10 00:18:18;;;;;;;11.02;7.28;;;17.90;61.20;;;;;;5041637;28;20616;-74
2021/06/10 00:20:44;;;;;;;9.23;6.90;;;17.90;61.70;;;;;;5042882;28;20072;-73
2021/06/10 00:23:10;;;;;;;8.25;6.43;;;17.90;61.90;;;;;;5040859;28;20032;-72
2021/06/10 00:25:36;;;;;;;9.45;6.90;;;17.90;61.80;;;;;;5042723;28;20041;-75
2021/06/10 00:28:02;;;;;;;10.23;5.93;;;17.80;61.40;;;;;;5041084;28;20060;-74
2021/06/10 00:30:28;;;;;;;8.80;6.38;;;17.80;60.30;;;;;;5039693;28;20040;-73
2021/06/10 00:32:54;;;;;;;9.25;6.32;;;17.80;60.30;;;;;;5043191;28;20099;-73
2021/06/10 00:35:22;;;;;;;8.95;6.25;;;17.70;60.30;;;;;;5039915;28;20051;-75
2021/06/10 00:37:48;;;;;;;9.88;6.40;;;17.70;60.60;;;;;;5038799;28;20041;-73
2021/06/10 00:40:13;;;;;;;7.93;5.20;;;17.60;60.40;;;;;;5039308;28;20052;-73
2021/06/10 00:42:40;;;;;;;7.93;5.63;;;17.60;58.70;;;;;;5039501;28;20033;-74
2021/06/10 00:45:08;;;;;;;7.78;5.03;;;17.60;58.50;;;;;;5039548;28;20520;-73
2021/06/10 00:47:34;;;;;;;9.07;5.45;;;17.60;58.80;;;;;;5040630;28;20591;-73
2021/06/10 00:50:00;;;;;;;7.97;5.30;;;17.60;59.00;;;;;;5043616;28;20037;-72
2021/06/10 00:52:25;;;;;;;7.15;4.93;;;17.60;59.70;;;;;;5038876;28;20025;-74
2021/06/10 00:54:51;;;;;;;6.95;4.78;;;17.60;59.60;;;;;;5039294;28;20040;-73
2021/06/10 00:57:17;;;;;;;7.85;4.18;;;17.60;59.40;;;;;;5039968;28;20447;-75
2021/06/10 00:59:42;;;;;;;7.25;4.97;;;17.60;58.40;;;;;;5052791;28;20040;-75
2021/06/10 01:02:08;;;;;;;6.97;4.43;;;17.60;58.30;;;;;;5054259;28;20118;-74
2021/06/10 01:04:34;;;;;;;7.38;4.28;;;17.50;57.30;;;;;;5053535;28;20095;-74
2021/06/10 01:07:09;;;;;;;6.80;4.50;;;17.50;58.60;;;;;;5051241;28;20040;-74
2021/06/10 01:09:47;;;;;;;6.18;4.32;;;17.50;57.90;;;;;;5053511;28;20064;-75
2021/06/10 01:12:53;;;;;;;7.43;5.20;;;17.50;58.50;;;;;;5042621;28;20131;-76
2021/06/10 01:15:23;;;;;;;7.75;4.70;;;17.40;58.70;;;;;;5029413;28;20041;-74
2021/06/10 01:17:49;;;;;;;8.00;5.43;;;17.30;59.40;;;;;;5040378;28;20436;-74
2021/06/10 01:20:21;;;;;;;6.80;4.40;;;17.20;60.00;;;;;;5038095;28;20074;-74
2021/06/10 01:22:59;;;;;;;7.78;5.20;;;17.20;60.20;;;;;;5041691;28;20116;-73
2021/06/10 01:25:34;;;;;;;7.07;4.47;;;17.10;60.20;;;;;;5039717;28;20087;-75
2021/06/10 01:28:05;;;;;;;6.72;4.50;;;17.10;59.90;;;;;;5039676;28;20033;-74
2021/06/10 01:30:34;;;;;;;7.60;4.13;;;17.10;59.70;;;;;;5043346;28;20052;-73
2021/06/10 01:33:08;;;;;;;7.32;4.38;;;16.90;59.80;;;;;;5043981;28;20067;-73
2021/06/10 01:35:38;;;;;;;6.65;4.70;;;17.00;59.60;;;;;;5040509;28;20060;-74
2021/06/10 01:38:05;;;;;;;6.65;4.38;;;16.90;60.10;;;;;;5042392;28;20041;-75
2021/06/10 01:40:31;;;;;;;7.40;4.47;;;16.90;60.70;;;;;;5054413;28;20417;-75
2021/06/10 01:42:59;;;;;;;6.00;4.20;;;16.80;60.30;;;;;;5040653;28;20037;-72
2021/06/10 01:45:26;;;;;;;6.10;4.05;;;16.70;60.40;;;;;;5040882;28;20090;-75
2021/06/10 01:47:52;;;;;;;7.15;5.03;;;16.70;60.40;;;;;;5037962;28;20057;-74
2021/06/10 01:50:20;;;;;;;7.60;4.53;;;16.60;60.50;;;;;;5041102;28;20059;-75
2021/06/10 01:52:47;;;;;;;7.68;4.78;;;16.60;61.30;;;;;;5040991;28;20049;-74
2021/06/10 01:55:16;;;;;;;7.85;4.85;;;16.60;61.70;;;;;;5039770;28;20056;-72
2021/06/10 01:57:44;;;;;;;9.60;5.53;;;16.60;61.90;;;;;;5037427;28;20495;-74
2021/06/10 02:00:13;;;;;;;10.23;6.15;;;16.60;62.60;;;;;;5036491;28;20029;-73
2021/06/10 02:02:39;;;;;;;7.45;5.68;;;16.50;62.80;;;;;;5037158;28;20387;-74
2021/06/10 02:05:07;;;;;;;9.20;5.88;;;16.50;63.00;;;;;;5039736;28;20033;-75
2021/06/10 02:07:39;;;;;;;7.90;5.80;;;16.50;63.50;;;;;;5038982;28;20021;-73
2021/06/10 02:10:08;;;;;;;7.63;5.50;;;16.50;63.70;;;;;;5040302;28;20041;-72
2021/06/10 02:12:34;;;;;;;8.55;5.70;;;16.50;63.40;;;;;;5042801;28;20365;-75
2021/06/10 02:15:06;;;;;;;8.13;5.57;;;16.50;63.30;;;;;;5038172;28;20514;-73
2021/06/10 02:17:32;;;;;;;9.02;6.10;;;16.50;63.50;;;;;;5038991;28;20029;-73
2021/06/10 02:19:57;;;;;;;8.07;5.65;;;16.40;63.10;;;;;;5039674;28;20768;-73
2021/06/10 02:22:23;;;;;;;8.25;5.68;;;16.40;63.10;;;;;;5036914;28;20048;-73
2021/06/10 02:24:50;;;;;;;8.63;5.88;;;16.40;62.90;;;;;;5039688;28;20404;-74
2021/06/10 02:27:16;;;;;;;7.72;5.47;;;16.30;62.70;;;;;;5038832;28;20025;-74
2021/06/10 02:29:42;;;;;;;9.38;5.60;;;16.20;63.10;;;;;;5040253;28;20456;-74
2021/06/10 02:32:08;;;;;;;9.40;5.45;;;16.30;63.20;;;;;;5039798;28;20087;-73
2021/06/10 02:34:34;;;;;;;7.90;5.18;;;16.30;63.10;;;;;;5038112;28;20552;-73
2021/06/10 02:37:01;;;;;;;9.70;5.65;;;16.20;63.10;;;;;;5039265;28;20040;-73
2021/06/10 02:39:29;;;;;;;7.15;4.40;;;16.10;62.90;;;;;;5041743;28;20037;-72
2021/06/10 02:41:56;;;;;;;8.35;4.93;;;16.10;63.10;;;;;;5042650;28;20040;-75
2021/06/10 02:44:26;;;;;;;8.77;5.30;;;16.00;62.80;;;;;;5043226;28;20025;-72
2021/06/10 02:46:53;;;;;;;8.40;5.38;;;16.00;62.70;;;;;;5043002;28;20094;-73
2021/06/10 02:49:20;;;;;;;9.85;5.70;;;16.00;63.00;;;;;;5043275;28;20124;-74
2021/06/10 02:51:46;;;;;;;10.50;5.72;;;15.90;63.20;;;;;;5041784;28;20396;-74
2021/06/10 02:54:17;;;;;;;9.25;5.97;;;15.90;63.20;;;;;;5043725;28;20746;-74
2021/06/10 02:56:43;;;;;;;8.70;5.60;;;15.90;63.50;;;;;;5042408;28;20040;-74
2021/06/10 02:59:10;;;;;;;10.82;6.25;;;15.90;63.50;;;;;;5043106;28;20095;-73
2021/06/10 03:01:39;;;;;;;8.27;5.95;;;15.90;63.60;;;;;;5042533;28;20460;-73
2021/06/10 03:04:08;;;;;;;9.40;5.78;;;15.90;64.00;;;;;;5042359;28;20091;-74
2021/06/10 03:06:35;;;;;;;8.98;5.40;;;15.80;63.80;;;;;;5044454;28;20057;-76
2021/06/10 03:09:01;;;;;;;8.80;5.35;;;15.90;63.60;;;;;;5041408;28;20095;-75
2021/06/10 03:11:27;;;;;;;7.95;5.00;;;15.80;63.60;;;;;;5042469;28;20159;-73
2021/06/10 03:13:54;;;;;;;9.82;6.03;;;15.80;63.70;;;;;;5040706;28;20456;-74
2021/06/10 03:16:21;;;;;;;8.50;5.55;;;15.80;63.50;;;;;;5042761;28;20112;-75
2021/06/10 03:18:47;;;;;;;8.75;5.55;;;15.70;63.50;;;;;;5038870;28;20033;-72
2021/06/10 03:21:13;;;;;;;8.35;5.18;;;15.80;63.50;;;;;;5044481;28;20028;-73
2021/06/10 03:23:40;;;;;;;7.57;4.85;;;15.70;63.40;;;;;;5040050;28;20029;-73
2021/06/10 03:26:07;;;;;;;8.73;5.00;;;15.70;63.30;;;;;;5041302;28;20124;-72
2021/06/10 03:28:34;;;;;;;6.95;4.60;;;15.70;63.40;;;;;;5044026;28;20040;-73
2021/06/10 03:31:00;;;;;;;9.20;5.28;;;15.70;63.50;;;;;;5041315;28;20024;-74
2021/06/10 03:33:26;;;;;;;9.18;5.13;;;15.70;63.40;;;;;;5041306;28;20041;-73
2021/06/10 03:35:54;;;;;;;7.82;5.18;;;15.70;63.30;;;;;;5041781;28;20045;-73
2021/06/10 03:38:20;;;;;;;9.20;5.50;;;15.70;63.10;;;;;;5054863;28;20036;-76
2021/06/10 03:40:48;;;;;;;8.50;5.20;;;15.80;63.10;;;;;;5044365;28;20067;-73
2021/06/10 03:43:15;;;;;;;10.35;5.07;;;15.70;63.10;;;;;;5039833;28;20040;-74
2021/06/10 03:45:41;;;;;;;8.95;5.75;;;15.80;63.00;;;;;;5039933;28;20112;-73
2021/06/10 03:48:10;;;;;;;8.45;5.80;;;15.80;63.10;;;;;;5042771;28;20055;-73
2021/06/10 03:50:37;;;;;;;9.93;5.50;;;15.80;63.30;;;;;;5042405;28;20044;-74
2021/06/10 03:53:05;;;;;;;8.13;5.18;;;15.70;63.90;;;;;;5041961;28;20052;-74
2021/06/10 03:55:31;;;;;;;7.95;5.45;;;15.80;64.10;;;;;;5042693;28;20029;-72
2021/06/10 03:57:57;;;;;;;9.25;5.57;;;15.80;64.00;;;;;;5041256;28;20032;-75
2021/06/10 04:00:23;;;;;;;9.23;5.93;;;15.80;64.00;;;;;;5040135;28;20447;-73
2021/06/10 04:02:48;;;;;;;9.95;6.80;;;15.80;64.20;;;;;;5041567;28;20404;-75
2021/06/10 04:05:14;;;;;;;10.65;6.50;;;15.80;64.70;;;;;;5040643;28;20049;-75
2021/06/10 04:07:40;;;;;;;9.18;6.53;;;15.80;65.40;;;;;;5038625;28;20526;-72
2021/06/10 04:10:06;;;;;;;9.45;7.40;;;15.70;65.80;;;;;;5041026;28;20053;-73
2021/06/10 04:12:32;;;;;;;12.27;8.20;;;15.70;66.20;;;;;;5041381;28;20086;-73
2021/06/10 04:14:58;;;;;;;13.50;8.65;;;15.80;67.00;;;;;;5041200;28;20045;-73
2021/06/10 04:17:23;;;;;;;11.27;8.50;;;15.80;67.30;;;;;;5039970;28;20094;-74
2021/06/10 04:19:50;;;;;;;10.85;8.55;;;15.70;67.80;;;;;;5043796;28;20049;-73
2021/06/10 04:22:15;;;;;;;12.18;8.85;;;15.80;67.90;;;;;;5040737;28;20060;-73
2021/06/10 04:24:42;;;;;;;11.27;8.80;;;15.80;67.90;;;;;;5037712;28;20029;-72
2021/06/10 04:27:08;;;;;;;12.63;8.85;;;15.90;67.90;;;;;;5041521;28;20033;-72
2021/06/10 04:29:34;;;;;;;10.80;8.88;;;15.90;68.00;;;;;;5039432;28;20480;-75
2021/06/10 04:32:00;;;;;;;11.55;8.98;;;16.00;68.10;;;;;;5039365;28;20043;-73
2021/06/10 04:34:26;;;;;;;13.02;8.48;;;16.00;68.30;;;;;;5037898;28;20044;-73
2021/06/10 04:36:52;;;;;;;10.88;8.25;;;16.00;68.30;;;;;;5039993;28;20597;-72
2021/06/10 04:39:17;;;;;;;11.60;8.40;;;16.10;68.60;;;;;;5035631;28;20392;-73
2021/06/10 04:41:43;;;;;;;14.43;8.88;;;16.10;68.50;;;;;;5038018;28;20041;-75
2021/06/10 04:44:09;;;;;;;12.55;9.00;;;16.10;68.40;;;;;;5038130;28;20045;-72
2021/06/10 04:46:35;;;;;;;12.50;9.02;;;16.20;68.60;;;;;;5039737;28;20473;-72
2021/06/10 04:49:01;;;;;;;12.40;9.02;;;16.20;68.70;;;;;;5037130;28;20044;-74
2021/06/10 04:51:27;;;;;;;12.02;8.38;;;16.30;68.80;;;;;;5037086;28;20021;-72
2021/06/10 04:53:54;;;;;;;18.27;10.52;;;16.30;68.90;;;;;;5039762;28;20029;-73
2021/06/10 04:56:21;;;;;;;13.00;9.15;;;16.40;69.30;;;;;;5039344;28;20037;-72
2021/06/10 04:58:47;;;;;;;14.50;10.05;;;16.40;69.30;;;;;;5037471;28;20045;-71
2021/06/10 05:01:13;;;;;;;27.52;11.75;;;16.50;69.40;;;;;;5034961;28;20132;-73
2021/06/10 05:03:38;;;;;;;36.85;11.60;;;16.60;69.10;;;;;;5036724;28;20040;-73
2021/06/10 05:06:04;;;;;;;18.42;9.75;;;16.60;68.90;;;;;;5034409;28;20033;-72
2021/06/10 05:08:30;;;;;;;15.00;9.15;;;16.90;68.70;;;;;;5034975;28;20029;-72
2021/06/10 05:10:55;;;;;;;17.10;9.48;;;18.10;65.30;;;;;;5034847;28;20029;-73
2021/06/10 05:13:21;;;;;;;27.42;9.70;;;20.10;60.20;;;;;;5039181;28;20040;-72
2021/06/10 05:15:47;;;;;;;24.83;9.25;;;21.60;54.10;;;;;;5037338;28;20171;-74
2021/06/10 05:18:13;;;;;;;15.55;7.30;;;22.80;50.80;;;;;;5037664;28;20465;-72
2021/06/10 05:20:38;;;;;;;18.05;8.25;;;23.80;47.90;;;;;;5037574;28;20041;-74
2021/06/10 05:23:04;;;;;;;12.27;7.85;;;24.60;45.90;;;;;;5035101;28;20120;-73
2021/06/10 05:25:30;;;;;;;9.02;7.13;;;25.10;45.00;;;;;;5040445;28;20090;-73
2021/06/10 05:27:55;;;;;;;8.35;6.22;;;25.70;43.40;;;;;;5039136;28;20116;-75
2021/06/10 05:30:21;;;;;;;10.82;6.75;;;26.10;42.20;;;;;;5036722;28;20036;-74
2021/06/10 05:32:47;;;;;;;10.88;6.68;;;26.00;42.30;;;;;;5038071;28;20043;-73
2021/06/10 05:35:13;;;;;;;13.00;7.30;;;26.30;41.80;;;;;;5036841;28;20579;-74
2021/06/10 05:37:39;;;;;;;17.70;7.90;;;26.40;41.30;;;;;;5037221;28;20037;-73
2021/06/10 05:40:09;;;;;;;14.40;7.88;;;26.60;41.10;;;;;;5036852;28;20132;-73
2021/06/10 05:42:35;;;;;;;10.25;6.78;;;26.90;40.70;;;;;;5038744;28;20038;-75
2021/06/10 05:45:01;;;;;;;10.57;7.72;;;27.20;40.20;;;;;;5040435;28;20033;-75
2021/06/10 05:47:27;;;;;;;15.90;8.45;;;27.10;40.10;;;;;;5036869;28;20068;-73
2021/06/10 05:49:53;;;;;;;10.63;7.90;;;26.40;41.70;;;;;;5037543;28;20064;-74
2021/06/10 05:52:18;;;;;;;12.55;8.40;;;25.70;43.20;;;;;;5040439;28;20136;-73
2021/06/10 05:54:44;;;;;;;16.40;9.82;;;25.20;44.40;;;;;;5035591;28;20041;-73
2021/06/10 05:57:11;;;;;;;12.88;8.60;;;24.20;46.90;;;;;;5040709;28;20037;-73
2021/06/10 05:59:37;;;;;;;11.50;8.35;;;23.00;50.60;;;;;;5038478;28;20118;-76
2021/06/10 06:02:03;;;;;;;16.13;9.63;;;22.20;52.80;;;;;;5037758;28;20123;-74
2021/06/10 06:04:28;;;;;;;12.93;9.88;;;21.60;55.50;;;;;;5040685;28;20384;-73
2021/06/10 06:06:54;;;;;;;12.65;9.52;;;21.10;56.10;;;;;;5040273;28;20053;-72
2021/06/10 06:09:21;;;;;;;14.95;9.82;;;20.80;57.90;;;;;;5037517;28;20116;-72
2021/06/10 06:11:50;;;;;;;13.48;10.95;;;20.60;58.20;;;;;;5045193;28;20028;-73
2021/06/10 06:14:17;;;;;;;15.27;11.07;;;20.20;60.50;;;;;;5050266;28;20041;-73
2021/06/10 06:16:44;;;;;;;17.45;11.23;;;20.30;60.40;;;;;;5047126;28;20127;-73
2021/06/10 06:19:12;;;;;;;13.65;11.15;;;20.40;61.30;;;;;;5048577;28;20029;-73
2021/06/10 06:21:40;;;;;;;17.13;11.07;;;20.50;60.20;;;;;;5050807;28;20033;-74
2021/06/10 06:24:06;;;;;;;17.80;11.55;;;20.50;61.50;;;;;;5045542;28;20033;-69
2021/06/10 06:26:32;;;;;;;13.38;10.70;;;20.40;61.50;;;;;;5049411;28;20033;-70
2021/06/10 06:29:00;;;;;;;17.13;12.15;;;20.40;62.20;;;;;;5047613;28;20041;-70
2021/06/10 06:31:26;;;;;;;15.65;11.48;;;20.40;62.20;;;;;;5046715;28;20025;-69
2021/06/10 06:33:52;;;;;;;22.08;13.63;;;20.50;62.00;;;;;;5048735;28;20080;-69
2021/06/10 06:36:18;;;;;;;16.88;12.70;;;20.40;62.30;;;;;;5043003;28;20460;-69
2021/06/10 06:38:44;;;;;;;16.27;12.93;;;20.50;62.30;;;;;;5039892;28;20040;-70
2021/06/10 06:41:11;;;;;;;16.08;12.15;;;20.50;63.00;;;;;;5045964;28;20035;-69
2021/06/10 06:43:36;;;;;;;18.73;12.13;;;20.60;63.80;;;;;;5043724;28;20048;-70
2021/06/10 06:46:03;;;;;;;17.73;13.00;;;20.60;63.90;;;;;;5042734;28;20037;-69
2021/06/10 06:48:29;;;;;;;20.70;12.90;;;20.70;63.20;;;;;;5045268;28;20045;-68
2021/06/10 06:50:56;;;;;;;17.35;13.05;;;20.80;62.80;;;;;;5041879;28;20037;-71
2021/06/10 06:53:21;;;;;;;20.35;13.00;;;20.90;63.10;;;;;;5041229;28;20037;-71
2021/06/10 06:55:48;;;;;;;20.30;13.07;;;21.00;62.80;;;;;;5047513;28;20378;-71
2021/06/10 06:58:13;;;;;;;17.98;14.50;;;21.10;63.50;;;;;;5048088;28;20049;-69
2021/06/10 07:00:39;;;;;;;20.70;14.93;;;21.00;63.80;;;;;;5047632;28;20520;-70
2021/06/10 07:03:05;;;;;;;17.98;14.77;;;20.60;64.80;;;;;;5044237;28;20474;-69
2021/06/10 07:05:30;;;;;;;17.58;14.50;;;20.80;65.60;;;;;;5047391;28;20033;-69
2021/06/10 07:07:56;;;;;;;19.58;15.02;;;20.80;65.70;;;;;;5047366;28;20497;-68
2021/06/10 07:10:22;;;;;;;18.48;15.48;;;20.80;65.30;;;;;;5039759;28;20044;-68
2021/06/10 07:12:47;;;;;;;19.67;14.65;;;20.80;65.80;;;;;;5046392;28;20121;-68
2021/06/10 07:15:13;;;;;;;20.67;15.63;;;20.70;66.20;;;;;;5046397;28;20480;-69
2021/06/10 07:17:39;;;;;;;19.05;16.02;;;20.70;65.60;;;;;;5048623;28;20473;-68
2021/06/10 07:20:06;;;;;;;19.30;17.00;;;20.80;65.60;;;;;;5041099;28;20048;-69
2021/06/10 07:22:32;;;;;;;17.85;14.65;;;21.00;65.60;;;;;;5046056;28;20082;-68
2021/06/10 07:24:58;;;;;;;19.70;16.40;;;21.30;64.50;;;;;;5050374;28;20102;-69
2021/06/10 07:27:24;;;;;;;22.15;16.73;;;21.20;64.20;;;;;;5045376;28;20040;-70
2021/06/10 07:29:50;;;;;;;21.75;15.77;;;21.20;65.80;;;;;;5049293;28;20037;-69
2021/06/10 07:32:16;;;;;;;21.38;16.60;;;21.50;64.20;;;;;;5042897;28;20048;-69
2021/06/10 07:34:42;;;;;;;21.35;15.18;;;21.70;64.00;;;;;;5046024;28;20040;-69
2021/06/10 07:37:08;;;;;;;22.48;17.05;;;21.90;63.20;;;;;;5046022;28;20029;-70
2021/06/10 07:39:35;;;;;;;21.38;16.55;;;22.00;62.80;;;;;;5049166;28;20045;-67
2021/06/10 07:42:01;;;;;;;21.23;16.77;;;22.10;63.40;;;;;;5045285;28;20504;-71
2021/06/10 07:44:30;;;;;;;20.38;16.38;;;22.20;62.30;;;;;;5047170;28;20051;-68
2021/06/10 07:46:55;;;;;;;18.52;15.98;;;21.90;62.50;;;;;;5058505;28;20492;-68
2021/06/10 07:49:21;;;;;;;19.25;15.80;;;21.90;63.00;;;;;;5043540;28;20043;-68
2021/06/10 07:51:47;;;;;;;19.52;15.90;;;22.10;62.70;;;;;;5043562;28;20041;-71
2021/06/10 07:54:13;;;;;;;22.23;17.08;;;22.40;61.80;;;;;;5047214;28;20033;-69
2021/06/10 07:56:38;;;;;;;18.90;15.85;;;22.70;61.10;;;;;;5051287;28;20054;-68
2021/06/10 07:59:05;;;;;;;19.02;15.77;;;22.60;61.80;;;;;;5044750;28;20377;-69
2021/06/10 08:01:31;;;;;;;21.33;16.10;;;22.60;61.60;;;;;;5044558;28;20041;-68
2021/06/10 08:03:56;;;;;;;21.13;16.25;;;22.60;61.40;;;;;;5048872;28;20037;-69
2021/06/10 08:06:23;;;;;;;29.13;17.15;;;22.70;62.20;;;;;;5046975;28;20037;-68
2021/06/10 08:08:48;;;;;;;20.90;16.45;;;22.60;62.20;;;;;;5041943;28;20033;-69
2021/06/10 08:11:14;;;;;;;19.08;16.20;;;22.50;62.50;;;;;;5047354;28;20046;-69
2021/06/10 08:13:40;;;;;;;25.27;16.33;;;22.60;62.90;;;;;;5044711;28;20040;-70
2021/06/10 08:16:06;;;;;;;20.65;15.77;;;23.00;62.40;;;;;;5045457;28;20033;-70
2021/06/10 08:18:32;;;;;;;20.83;17.10;;;22.80;61.80;;;;;;5043382;28;20072;-70
2021/06/10 08:21:00;;;;;;;20.42;16.80;;;22.70;61.70;;;;;;5042487;28;20128;-69
2021/06/10 08:23:27;;;;;;;19.92;17.23;;;22.80;62.40;;;;;;5044713;28;20025;-70
2021/06/10 08:25:57;;;;;;;20.40;16.27;;;23.20;61.70;;;;;;5047003;28;20045;-70
2021/06/10 08:28:23;;;;;;;21.65;17.23;;;23.40;60.00;;;;;;5049269;28;20025;-70
2021/06/10 08:30:49;;;;;;;18.80;16.05;;;23.40;60.50;;;;;;5047008;28;20044;-69
2021/06/10 08:33:15;;;;;;;21.10;17.17;;;23.60;60.00;;;;;;5044736;28;20032;-69
2021/06/10 08:35:41;;;;;;;18.38;16.35;;;23.80;59.10;;;;;;5046518;28;20033;-69
2021/06/10 08:38:08;;;;;;;20.15;16.98;;;23.80;59.10;;;;;;5046233;28;20033;-69
2021/06/10 08:40:34;;;;;;;20.27;16.55;;;23.60;59.50;;;;;;5045155;28;20056;-69
2021/06/10 08:43:00;;;;;;;20.05;17.10;;;23.50;60.30;;;;;;5059769;28;20041;-69
2021/06/10 08:45:28;;;;;;;22.05;16.55;;;23.50;60.00;;;;;;5048199;28;20392;-68
2021/06/10 08:47:54;;;;;;;20.25;16.90;;;23.60;60.60;;;;;;5047077;28;20029;-70
2021/06/10 08:50:24;;;;;;;20.88;17.40;;;23.90;59.10;;;;;;5046687;28;20059;-68
2021/06/10 08:52:54;;;;;;;18.42;16.42;;;24.00;60.30;;;;;;5046800;28;20033;-69
2021/06/10 08:55:20;;;;;;;23.60;17.50;;;23.90;60.40;;;;;;5046230;28;20093;-68
2021/06/10 08:57:46;;;;;;;18.27;15.90;;;23.80;60.50;;;;;;5043956;28;20033;-71
2021/06/10 09:00:13;;;;;;;25.08;17.63;;;24.20;58.90;;;;;;5039222;28;20300;-68
2021/06/10 09:02:40;;;;;;;19.25;17.25;;;24.70;57.10;;;;;;5044744;28;20404;-68
2021/06/10 09:05:11;;;;;;;19.33;17.02;;;24.80;57.30;;;;;;5038641;28;20048;-68
2021/06/10 09:07:39;;;;;;;22.42;17.63;;;24.90;56.80;;;;;;5046638;28;20041;-68
2021/06/10 09:10:07;;;;;;;22.00;18.35;;;24.60;57.10;;;;;;5044673;28;20473;-68
2021/06/10 09:12:52;;;;;;;18.55;16.42;;;24.60;58.60;;;;;;5041297;28;20119;-69
2021/06/10 09:15:19;;;;;;;20.52;16.70;;;24.90;57.50;;;;;;5047225;28;20033;-69
2021/06/10 09:17:46;;;;;;;23.15;18.98;;;24.70;57.40;;;;;;5047181;28;20047;-71
2021/06/10 09:20:31;;;;;;;19.77;17.38;;;24.50;59.10;;;;;;5042057;28;20038;-70
2021/06/10 09:23:19;;;;;;;20.60;16.90;;;24.80;57.70;;;;;;5042691;28;20102;-69
2021/06/10 09:25:48;;;;;;;20.38;17.75;;;25.00;56.90;;;;;;5043862;28;20060;-69
2021/06/10 09:28:14;;;;;;;20.50;16.73;;;25.30;56.90;;;;;;5044220;28;20116;-70
2021/06/10 09:30:50;;;;;;;20.00;16.77;;;25.20;56.60;;;;;;5047095;28;20069;-68
2021/06/10 09:33:22;;;;;;;18.63;16.35;;;25.10;57.40;;;;;;5044263;28;21491;-67
2021/06/10 09:35:48;;;;;;;18.42;16.42;;;25.40;56.20;;;;;;5045691;28;20112;-69
2021/06/10 09:38:21;;;;;;;18.73;15.88;;;25.30;56.50;;;;;;5046610;28;20680;-68
2021/06/10 09:40:51;;;;;;;19.75;17.05;;;25.10;57.70;;;;;;5042575;28;20044;-71
2021/06/10 09:43:19;;;;;;;19.67;15.50;;;24.90;57.40;;;;;;5041742;28;20120;-69
2021/06/10 09:45:49;;;;;;;19.30;17.27;;;24.40;58.10;;;;;;5045853;28;20045;-70
2021/06/10 09:48:15;;;;;;;20.60;15.98;;;24.60;57.70;;;;;;5047816;28;20049;-69
2021/06/10 09:50:52;;;;;;;19.80;16.92;;;24.80;58.00;;;;;;5042986;28;20079;-69
2021/06/10 09:53:23;;;;;;;18.65;15.15;;;25.00;58.30;;;;;;5043990;28;20040;-69
2021/06/10 09:55:56;;;;;;;20.63;17.65;;;25.50;57.10;;;;;;5043967;28;20100;-69
2021/06/10 09:58:24;;;;;;;21.20;18.38;;;25.40;56.20;;;;;;5043171;28;20029;-68
2021/06/10 10:00:52;;;;;;;19.15;17.00;;;25.40;55.70;;;;;;5039584;28;20405;-69
2021/06/10 10:03:30;;;;;;;21.00;17.10;;;24.90;58.40;;;;;;5042846;28;20045;-68
2021/06/10 10:05:58;;;;;;;20.73;16.65;;;25.30;58.40;;;;;;5037444;28;20069;-69
2021/06/10 10:08:25;;;;;;;20.67;17.50;;;25.50;55.70;;;;;;5038372;28;20052;-75
2021/06/10 10:10:51;;;;;;;24.35;19.95;;;25.80;56.60;;;;;;5046538;28;20187;-74
2021/06/10 10:13:18;;;;;;;21.65;18.25;;;25.50;57.60;;;;;;5045536;28;20029;-73
2021/06/10 10:15:45;;;;;;;19.23;16.90;;;25.70;56.10;;;;;;5042080;28;20396;-74
2021/06/10 10:18:11;;;;;;;20.92;17.73;;;26.00;54.30;;;;;;5042848;28;20404;-73
2021/06/10 10:20:38;;;;;;;21.25;17.77;;;26.10;54.70;;;;;;5047620;28;20045;-69
2021/06/10 10:23:06;;;;;;;22.45;19.02;;;26.00;55.50;;;;;;5043074;28;20037;-68
2021/06/10 10:25:32;;;;;;;20.33;18.13;;;25.50;55.90;;;;;;5040878;28;20483;-69
2021/06/10 10:27:59;;;;;;;20.25;18.15;;;25.20;57.30;;;;;;5039636;28;20140;-69
2021/06/10 10:30:25;;;;;;;23.63;18.77;;;25.50;56.80;;;;;;5042736;28;20111;-69
2021/06/10 10:32:51;;;;;;;19.48;16.75;;;25.30;55.80;;;;;;5041054;28;20064;-71
2021/06/10 10:35:27;;;;;;;21.42;17.73;;;25.80;55.90;;;;;;5043408;28;20579;-69
2021/06/10 10:37:55;;;;;;;20.40;17.52;;;26.00;55.00;;;;;;5039432;28;20061;-69
2021/06/10 10:40:28;;;;;;;20.85;16.17;;;26.10;55.80;;;;;;5037271;28;20365;-72
2021/06/10 10:42:55;;;;;;;21.63;17.23;;;26.40;54.00;;;;;;5042972;28;20044;-69
2021/06/10 10:45:23;;;;;;;19.95;16.48;;;26.10;54.50;;;;;;5035423;28;20129;-70
2021/06/10 10:48:03;;;;;;;20.25;16.52;;;26.10;53.80;;;;;;5036237;28;20504;-73
2021/06/10 10:50:38;;;;;;;19.30;16.25;;;26.20;55.10;;;;;;5035613;28;20029;-69
2021/06/10 10:53:23;;;;;;;17.10;15.23;;;26.60;53.50;;;;;;5035910;28;20037;-70
2021/06/10 10:56:08;;;;;;;15.25;13.05;;;27.10;52.00;;;;;;5039631;28;20041;-69
2021/06/10 10:58:35;;;;;;;16.17;14.15;;;27.40;51.40;;;;;;5044960;28;20033;-71
2021/06/10 11:01:05;;;;;;;14.50;12.60;;;27.40;50.80;;;;;;5044969;28;20120;-71
2021/06/10 11:03:32;;;;;;;16.65;14.55;;;27.70;50.70;;;;;;5046938;28;20040;-71
2021/06/10 11:06:18;;;;;;;15.40;12.68;;;28.00;48.90;;;;;;5043285;28;20060;-69
2021/06/10 11:08:59;;;;;;;13.73;11.50;;;28.10;47.80;;;;;;5041672;28;20040;-69
2021/06/10 11:11:51;;;;;;;13.45;10.75;;;28.30;47.60;;;;;;5045074;28;20602;-70
2021/06/10 11:14:42;;;;;;;15.10;12.25;;;28.40;47.30;;;;;;5043502;28;20037;-69
2021/06/10 11:17:15;;;;;;;16.85;12.18;;;27.80;48.20;;;;;;5044217;28;20080;-70
2021/06/10 11:19:57;;;;;;;17.17;14.00;;;27.70;49.20;;;;;;5046492;28;20053;-67
2021/06/10 11:22:31;;;;;;;17.98;14.52;;;27.60;50.50;;;;;;5042398;28;20048;-68
2021/06/10 11:24:58;;;;;;;16.23;13.68;;;27.50;49.90;;;;;;5044947;28;20140;-68
2021/06/10 11:27:47;;;;;;;17.05;13.63;;;27.40;51.60;;;;;;5045952;28;20060;-68
2021/06/10 11:30:22;;;;;;;15.50;13.90;;;26.80;51.20;;;;;;5042885;28;20044;-68
2021/06/10 11:33:07;;;;;;;15.35;13.50;;;26.60;52.10;;;;;;5043431;28;20041;-68
2021/06/10 11:35:50;;;;;;;15.93;14.00;;;27.00;52.00;;;;;;5045073;28;20103;-67
2021/06/10 11:38:23;;;;;;;14.30;12.35;;;26.70;50.40;;;;;;5043873;28;20457;-68
2021/06/10 11:40:55;;;;;;;15.27;12.57;;;26.40;51.20;;;;;;5046119;28;20045;-68
2021/06/10 11:43:22;;;;;;;16.33;11.95;;;26.20;52.10;;;;;;5047137;28;20046;-69
2021/06/10 11:45:50;;;;;;;14.07;11.95;;;26.60;51.40;;;;;;5048736;28;20053;-72
2021/06/10 11:48:34;;;;;;;14.38;12.10;;;26.40;52.20;;;;;;5041503;28;20122;-68
2021/06/10 11:51:00;;;;;;;17.15;11.80;;;26.60;51.70;;;;;;5047050;28;20037;-69
2021/06/10 11:53:30;;;;;;;14.07;11.35;;;26.30;51.90;;;;;;5048625;28;20403;-68
2021/06/10 11:55:57;;;;;;;12.63;10.00;;;26.00;52.90;;;;;;5050156;28;20541;-67
2021/06/10 11:58:26;;;;;;;12.55;10.38;;;25.90;53.50;;;;;;5038544;28;20056;-67
2021/06/10 12:00:53;;;;;;;12.32;10.70;;;25.70;54.60;;;;;;5045543;28;20048;-70
2021/06/10 12:03:20;;;;;;;13.85;9.82;;;25.90;53.30;;;;;;5040973;28;20133;-68
2021/06/10 12:05:52;;;;;;;11.98;10.13;;;25.90;53.30;;;;;;5047800;28;20053;-68
2021/06/10 12:08:24;;;;;;;8.57;6.78;;;26.20;51.80;;;;;;5046894;28;20124;-68
2021/06/10 12:10:59;;;;;;;5.65;3.10;;;26.60;50.80;;;;;;5043733;28;20037;-68
2021/06/10 12:13:29;;;;;;;4.68;2.45;;;27.10;48.40;;;;;;5044707;28;20036;-68
2021/06/10 12:15:55;;;;;;;6.40;3.15;;;27.80;46.20;;;;;;5048474;28;20098;-67
2021/06/10 12:18:21;;;;;;;4.45;2.42;;;28.30;45.00;;;;;;5051756;28;20068;-70
2021/06/10 12:20:49;;;;;;;6.60;2.83;;;28.30;45.50;;;;;;5046466;28;20582;-68
2021/06/10 12:23:22;;;;;;;7.20;3.28;;;28.10;45.60;;;;;;5044150;28;20391;-68
2021/06/10 12:25:56;;;;;;;5.68;3.10;;;27.50;47.20;;;;;;5044509;28;20095;-67
2021/06/10 12:28:33;;;;;;;4.40;2.75;;;27.10;47.90;;;;;;5046861;28;20029;-68
2021/06/10 12:31:22;;;;;;;5.05;3.03;;;27.40;48.60;;;;;;5049240;28;20415;-67
2021/06/10 12:33:50;;;;;;;6.53;3.20;;;27.70;47.20;;;;;;5047829;28;20091;-68
2021/06/10 12:36:42;;;;;;;6.25;3.08;;;27.60;46.50;;;;;;5044063;28;20139;-67
2021/06/10 12:39:15;;;;;;;4.45;2.42;;;27.70;46.00;;;;;;5036533;28;20094;-67
2021/06/10 12:41:46;;;;;;;6.65;2.80;;;27.60;46.60;;;;;;5044250;28;20099;-67